Fairfax, IA (52228)

2:58 PM CDT on September 01, 2014 (GMT -0500)
Stoney Point Heights | Change Station
CLOSE
Current Station
Personal Weather Station
Location: Cedar Rapids, IA
Elevation: 833 ft
Nearby Weather Stations

Elev 833 ft 41.95 °N, 91.76 °W | Updated 6 seconds ago

Scattered Clouds
Scattered Clouds
80.8 °F
Feels Like 79 °F
N
4.9
Wind Variable Wind from WNW
Gusts 14.1 mph

Today
High -- | Low -- °F
--% Chance of Precip.
Yesterday
High -- | Low -- °F
Precip. -- in
6:32 AM 7:40 PM
Waxing Crescent, 43% visible
Pressure 29.76 in
Visibility 10.0 miles
Clouds Few 3600 ft
Scattered Clouds 6000 ft
Scattered Clouds 8000 ft
Heat Index 79 °F
Dew Point 17 °F
Humidity 9%
Rainfall 0.51 in
Snow Depth Not available.
UV 6 out of 12
Pollen 3.70 out of 12
Air Quality Not available.
Flu Activity Not available.
METAR KCID 011952Z 28013KT 10SM FEW036 SCT060 SCT080 26/19 A2977 RMK AO2 SLP077 T02560194

More Conditions Fewer Conditions

Pressure 29.76 in
Visibility 10.0 miles
Clouds Few 3600 ft
Scattered Clouds 6000 ft
Scattered Clouds 8000 ft
Heat Index 79 °F
Dew Point 17 °F
Humidity 9%
Rainfall 0.51 in
Snow Depth Not available.
UV 6 out of 12
Pollen 3.70 out of 12
Air Quality Not available.
Flu Activity Not available.
METAR KCID 011952Z 28013KT 10SM FEW036 SCT060 SCT080 26/19 A2977 RMK AO2 SLP077 T02560194

More Conditions Fewer Conditions

10-Day Weather Forecast

Almanac

Astronomy

Sep. 01, 2014 Rise Set
Actual Time 6:32 AM CDT 7:40 PM CDT
Civil Twilight 6:04 AM CDT 8:09 PM CDT
Nautical Twilight 5:29 AM CDT 8:43 PM CDT
Astronomical Twilight 4:53 AM CDT 9:19 PM CDT
Moon 1:25 PM CDT 11:35 PM CDT
Length of Visible Light 14h 05m
Length of Day
13h 07m
Tomorrow will be 2m 42s shorter.
Waxing Crescent, 43% of the Moon is Illuminated
Today
Waxing Crescent
Sep 2
First Quarter
Sep 8
Full
Sep 15
Last Quarter
Sep 24
New

Today's Extremes

State Highs State Lows

Community

WunderPhotos

Upload Photos

1,749,387 photos uploaded!

WunderBlogs® & News

Nearby

Snow Depth

Station Depth Elevation
No new snow has been reported.

Earthquake Activity

City Distance Mag. Time & Date
No recent earthquake activity has been reported nearby.
Minimum magnitude displayed is 2.5.

Coastal Water Temperatures

Place Temperature
No Stations Reporting

Nearby Weather Stations